Time;durP1;ratioP1;P1;durP2;ratioP2;P2;SDS_P1;SDS_P2;PMS_P1;PMS_P2;Temp;Humidity;BMP_temperature;BMP_pressure;BME280_temperature;BME280_humidity;BME280_pressure;Samples;Min_cycle;Max_cycle;Signal;HPM_P1;HPM_P2
2023/09/20 00:02:14;;;;;;;10.10;3.42;;;16.90;99.90;;;;;;5045456;28;20044;-71
2023/09/20 00:04:42;;;;;;;9.25;3.25;;;16.80;99.90;;;;;;5042577;28;20043;-72
2023/09/20 00:07:08;;;;;;;9.07;2.83;;;16.90;99.90;;;;;;5047938;28;20076;-72
2023/09/20 00:09:33;;;;;;;;;;;16.80;99.90;;;;;;5030422;28;20486;-72
2023/09/20 00:12:02;;;;;;;6.38;2.80;;;16.80;99.90;;;;;;5044574;28;20039;-72
2023/09/20 00:14:29;;;;;;;7.78;2.40;;;16.80;99.90;;;;;;5049542;28;20709;-72
2023/09/20 00:16:55;;;;;;;10.80;3.10;;;16.80;99.90;;;;;;5054659;28;20040;-71
2023/09/20 00:19:20;;;;;;;7.65;3.15;;;16.80;99.90;;;;;;5041723;28;20058;-72
2023/09/20 00:21:46;;;;;;;6.47;2.47;;;16.80;99.90;;;;;;5067738;28;20284;-72
2023/09/20 00:24:12;;;;;;;5.82;2.72;;;16.90;99.90;;;;;;5044086;28;20530;-72
2023/09/20 00:26:38;;;;;;;6.70;2.63;;;16.90;99.90;;;;;;5070497;28;20036;-72
2023/09/20 00:29:08;;;;;;;7.97;2.38;;;16.90;99.90;;;;;;5039366;28;20036;-72
2023/09/20 00:31:34;;;;;;;10.45;2.75;;;17.00;99.90;;;;;;5044714;28;20059;-72
2023/09/20 00:34:03;;;;;;;13.23;3.13;;;16.90;99.90;;;;;;5040335;28;20048;-72
2023/09/20 00:36:30;;;;;;;7.43;2.50;;;17.00;99.90;;;;;;5066421;28;20416;-72
2023/09/20 00:39:00;;;;;;;11.57;2.63;;;17.00;99.90;;;;;;5050274;28;20076;-72
2023/09/20 00:41:27;;;;;;;8.73;2.55;;;17.00;99.90;;;;;;5063094;28;20039;-72
2023/09/20 00:43:53;;;;;;;10.75;3.28;;;17.00;99.90;;;;;;5049403;28;20060;-72
2023/09/20 00:46:24;;;;;;;6.65;2.30;;;17.10;99.90;;;;;;5030049;28;20044;-72
2023/09/20 00:48:55;;;;;;;9.25;2.80;;;17.10;99.90;;;;;;5070025;28;20687;-72
2023/09/20 00:51:21;;;;;;;5.57;2.10;;;17.10;99.90;;;;;;5049345;28;20115;-72
2023/09/20 00:53:48;;;;;;;6.95;2.55;;;17.10;99.90;;;;;;5044504;28;20064;-72
2023/09/20 00:56:14;;;;;;;9.20;2.78;;;17.10;99.90;;;;;;5046745;28;20067;-72
2023/09/20 00:58:43;;;;;;;10.85;3.25;;;17.20;99.90;;;;;;5049168;28;20044;-72
2023/09/20 01:01:10;;;;;;;10.93;3.28;;;17.10;99.90;;;;;;5048857;28;20048;-72
2023/09/20 01:03:36;;;;;;;7.55;3.10;;;17.10;99.90;;;;;;5045758;28;20622;-72
2023/09/20 01:06:04;;;;;;;8.15;3.33;;;17.10;99.90;;;;;;5047086;28;20135;-72
2023/09/20 01:08:33;;;;;;;7.72;3.25;;;17.10;99.90;;;;;;5050402;28;20051;-72
2023/09/20 01:11:00;;;;;;;11.30;2.90;;;17.10;99.90;;;;;;5064807;28;20540;-72
2023/09/20 01:13:26;;;;;;;11.02;2.97;;;17.10;99.90;;;;;;5047534;28;20051;-72
2023/09/20 01:15:55;;;;;;;15.15;3.00;;;17.10;99.90;;;;;;5050937;28;20207;-72
2023/09/20 01:18:20;;;;;;;6.53;2.78;;;17.10;99.90;;;;;;5048004;28;20045;-72
2023/09/20 01:20:47;;;;;;;9.00;2.72;;;17.10;99.90;;;;;;5043315;28;20037;-72
2023/09/20 01:23:13;;;;;;;9.25;3.05;;;17.10;99.90;;;;;;5052210;28;20048;-72
2023/09/20 01:25:43;;;;;;;10.05;3.55;;;17.10;99.90;;;;;;5050086;28;20673;-72
2023/09/20 01:28:10;;;;;;;10.95;2.88;;;17.10;99.90;;;;;;5054502;28;20131;-72
2023/09/20 01:30:41;;;;;;;7.57;2.58;;;17.10;99.90;;;;;;5037766;28;20052;-72
2023/09/20 01:33:08;;;;;;;8.90;2.67;;;17.00;99.90;;;;;;5049273;28;20041;-71
2023/09/20 01:35:35;;;;;;;10.82;2.45;;;17.10;99.90;;;;;;5051689;28;20096;-72
2023/09/20 01:38:10;;;;;;;6.32;2.40;;;17.10;99.90;;;;;;5031612;28;20049;-72
2023/09/20 01:40:36;;;;;;;9.23;2.70;;;17.10;99.90;;;;;;5050175;28;20044;-72
2023/09/20 01:43:06;;;;;;;13.15;2.58;;;17.10;99.90;;;;;;5063295;28;20045;-72
2023/09/20 01:45:34;;;;;;;9.85;2.53;;;17.10;99.90;;;;;;5051705;28;20157;-72
2023/09/20 01:48:00;;;;;;;6.50;2.30;;;17.10;99.90;;;;;;5049729;28;20072;-72
2023/09/20 01:50:29;;;;;;;;;;;17.20;99.90;;;;;;5046378;28;20580;-72
2023/09/20 01:52:57;;;;;;;7.47;2.03;;;17.20;99.90;;;;;;5036486;28;20190;-72
2023/09/20 01:55:24;;;;;;;7.07;2.30;;;17.20;99.90;;;;;;5045582;28;20037;-72
2023/09/20 01:58:00;;;;;;;10.68;2.70;;;17.20;99.90;;;;;;5074728;28;20527;-72
2023/09/20 02:00:36;;;;;;;8.95;2.35;;;17.20;99.90;;;;;;5050566;28;20064;-72
2023/09/20 02:03:22;;;;;;;9.20;2.60;;;17.10;99.90;;;;;;5053046;28;20040;-72
2023/09/20 02:05:50;;;;;;;6.18;2.45;;;17.20;99.90;;;;;;5050527;28;20090;-71
2023/09/20 02:08:17;;;;;;;10.15;2.40;;;17.20;99.90;;;;;;5050148;28;20032;-71
2023/09/20 02:10:44;;;;;;;6.40;2.42;;;17.20;99.90;;;;;;5070175;28;20044;-72
2023/09/20 02:13:10;;;;;;;5.50;2.28;;;17.20;99.90;;;;;;5033548;28;20047;-72
2023/09/20 02:15:35;;;;;;;8.88;1.92;;;17.20;99.90;;;;;;5025195;28;20045;-71
2023/09/20 02:18:05;;;;;;;5.63;2.33;;;17.30;99.90;;;;;;5063879;28;20412;-71
2023/09/20 02:20:34;;;;;;;;;;;17.20;99.90;;;;;;5034214;28;20041;-80
2023/09/20 02:23:04;;;;;;;12.00;2.80;;;17.20;99.90;;;;;;5031990;28;19916;-72
2023/09/20 02:25:30;;;;;;;9.73;2.63;;;17.20;99.90;;;;;;5046110;28;20083;-71
2023/09/20 02:27:59;;;;;;;;;;;17.20;99.90;;;;;;5039131;28;20044;-72
2023/09/20 02:30:31;;;;;;;6.50;2.15;;;17.20;99.90;;;;;;5027062;28;19921;-72
2023/09/20 02:33:00;;;;;;;9.10;2.28;;;17.20;99.90;;;;;;5045113;28;20484;-72
2023/09/20 02:35:29;;;;;;;8.13;2.60;;;17.20;99.90;;;;;;5052236;28;20084;-72
2023/09/20 02:37:56;;;;;;;8.60;2.40;;;17.20;99.90;;;;;;5033420;28;20048;-71
2023/09/20 02:40:24;;;;;;;5.75;2.17;;;17.20;99.90;;;;;;5048082;28;20028;-71
2023/09/20 02:42:58;;;;;;;6.80;2.50;;;17.20;99.90;;;;;;5026153;28;20056;-72
2023/09/20 02:45:25;;;;;;;8.95;2.80;;;17.10;99.90;;;;;;5043372;28;20036;-71
2023/09/20 02:47:51;;;;;;;4.72;2.33;;;17.20;99.90;;;;;;5051124;28;20036;-71
2023/09/20 02:50:25;;;;;;;9.25;3.08;;;17.20;99.90;;;;;;5046801;28;20048;-72
2023/09/20 02:52:52;;;;;;;6.22;2.42;;;17.20;99.90;;;;;;5032416;28;20044;-71
2023/09/20 02:55:20;;;;;;;7.53;2.10;;;17.20;99.90;;;;;;5049176;28;20075;-72
2023/09/20 02:57:52;;;;;;;7.97;2.83;;;17.20;99.90;;;;;;5046966;28;20045;-72
2023/09/20 03:00:32;;;;;;;14.40;2.47;;;17.20;99.90;;;;;;5045443;28;20037;-72
2023/09/20 03:03:02;;;;;;;6.47;2.42;;;17.20;99.90;;;;;;5059798;28;20047;-72
2023/09/20 03:05:30;;;;;;;5.25;2.33;;;17.20;99.90;;;;;;5045688;28;20596;-72
2023/09/20 03:08:01;;;;;;;7.60;2.42;;;17.10;99.90;;;;;;5046468;28;20068;-71
2023/09/20 03:10:28;;;;;;;8.07;2.42;;;17.20;99.90;;;;;;5042789;28;20094;-71
2023/09/20 03:12:55;;;;;;;5.70;1.75;;;17.20;99.90;;;;;;5045431;28;20048;-71
2023/09/20 03:15:23;;;;;;;10.23;2.30;;;17.20;99.90;;;;;;5034502;28;20480;-72
2023/09/20 03:17:54;;;;;;;6.93;1.90;;;17.20;99.90;;;;;;5049420;28;20232;-71
2023/09/20 03:20:24;;;;;;;7.45;2.50;;;17.20;99.90;;;;;;5046078;28;20032;-72
2023/09/20 03:22:53;;;;;;;7.68;2.08;;;17.20;99.90;;;;;;5047232;28;20048;-71
2023/09/20 03:25:21;;;;;;;4.32;1.90;;;17.20;99.90;;;;;;5051575;28;20512;-71
2023/09/20 03:27:48;;;;;;;5.47;1.98;;;17.10;99.90;;;;;;5051353;28;20574;-72
2023/09/20 03:30:16;;;;;;;7.47;1.95;;;17.10;99.90;;;;;;5049733;28;20119;-72
2023/09/20 03:32:44;;;;;;;5.85;2.10;;;17.10;99.90;;;;;;5025231;28;20089;-73
2023/09/20 03:35:12;;;;;;;9.43;2.20;;;17.10;99.90;;;;;;5065513;28;20041;-73
2023/09/20 03:37:40;;;;;;;5.22;1.88;;;17.10;99.90;;;;;;5042526;28;20192;-72
2023/09/20 03:40:17;;;;;;;10.98;2.30;;;17.10;99.90;;;;;;5027572;28;20040;-72
2023/09/20 03:42:44;;;;;;;9.45;2.47;;;17.10;99.90;;;;;;5049876;28;20437;-72
2023/09/20 03:45:16;;;;;;;10.55;2.63;;;17.10;99.90;;;;;;5028648;28;20036;-73
2023/09/20 03:47:48;;;;;;;9.15;3.08;;;17.10;99.90;;;;;;5028696;28;20151;-72
2023/09/20 03:50:18;;;;;;;6.80;2.80;;;17.10;99.90;;;;;;5053387;28;20459;-72
2023/09/20 03:52:44;;;;;;;4.70;2.05;;;17.10;99.90;;;;;;5062847;28;20077;-72
2023/09/20 03:55:12;;;;;;;6.18;2.00;;;17.10;99.90;;;;;;5045183;28;20051;-72
2023/09/20 03:57:38;;;;;;;6.85;2.28;;;17.10;99.90;;;;;;5045424;28;20041;-71
2023/09/20 04:00:18;;;;;;;4.97;1.98;;;17.10;99.90;;;;;;5045509;28;20032;-72
2023/09/20 04:02:51;;;;;;;7.13;2.58;;;17.10;99.90;;;;;;5033432;28;20059;-72
2023/09/20 04:05:20;;;;;;;7.70;2.73;;;17.10;99.90;;;;;;5046771;28;20044;-72
2023/09/20 04:07:47;;;;;;;7.78;2.03;;;17.10;99.90;;;;;;5046154;28;20051;-72
2023/09/20 04:10:17;;;;;;;5.57;2.20;;;17.10;99.90;;;;;;5046574;28;20053;-72
2023/09/20 04:12:42;;;;;;;7.90;2.35;;;17.00;99.90;;;;;;5061446;28;20068;-72
2023/09/20 04:15:08;;;;;;;6.75;2.53;;;17.00;99.90;;;;;;5043061;28;20060;-73
2023/09/20 04:17:35;;;;;;;10.00;3.13;;;17.00;99.90;;;;;;5052001;28;20047;-72
2023/09/20 04:20:06;;;;;;;11.48;2.70;;;17.00;99.90;;;;;;5049203;28;20121;-72
2023/09/20 04:22:32;;;;;;;8.63;2.78;;;16.90;99.90;;;;;;5036479;28;20036;-72
2023/09/20 04:25:00;;;;;;;9.10;3.45;;;16.90;99.90;;;;;;5042331;28;20158;-72
2023/09/20 04:27:28;;;;;;;6.75;2.28;;;16.90;99.90;;;;;;5068940;28;20047;-72
2023/09/20 04:29:54;;;;;;;8.82;2.55;;;16.80;99.90;;;;;;5056766;28;20047;-71
2023/09/20 04:32:23;;;;;;;10.48;2.67;;;16.80;99.90;;;;;;5061087;28;20036;-72
2023/09/20 04:34:52;;;;;;;8.95;2.28;;;16.80;99.90;;;;;;5063537;28;20045;-72
2023/09/20 04:37:22;;;;;;;5.18;2.13;;;16.80;99.90;;;;;;5046376;28;20074;-72
2023/09/20 04:39:49;;;;;;;6.00;2.35;;;16.80;99.90;;;;;;5024698;28;20050;-73
2023/09/20 04:42:15;;;;;;;8.75;2.60;;;16.70;99.90;;;;;;5023398;28;20399;-72
2023/09/20 04:44:41;;;;;;;6.07;2.63;;;16.70;99.90;;;;;;5045720;28;20040;-72
2023/09/20 04:47:07;;;;;;;5.15;2.03;;;16.70;99.90;;;;;;5047229;28;20058;-73
2023/09/20 04:49:37;;;;;;;8.35;2.28;;;16.70;99.90;;;;;;5055169;28;20350;-72
2023/09/20 04:52:04;;;;;;;9.95;2.50;;;16.60;99.90;;;;;;5058674;28;20041;-72
2023/09/20 04:54:30;;;;;;;7.20;2.10;;;16.60;99.90;;;;;;5028163;28;20048;-72
2023/09/20 04:56:56;;;;;;;9.07;2.30;;;16.60;99.90;;;;;;5047921;28;20066;-72
2023/09/20 04:59:22;;;;;;;9.02;2.03;;;16.50;99.90;;;;;;5044296;28;20045;-72
2023/09/20 05:01:51;;;;;;;8.18;2.35;;;16.60;99.90;;;;;;5025947;28;20040;-71
2023/09/20 05:04:19;;;;;;;10.40;2.72;;;16.60;99.90;;;;;;5048987;28;20044;-72
2023/09/20 05:06:45;;;;;;;12.77;2.35;;;16.50;99.90;;;;;;5045546;28;20216;-72
2023/09/20 05:09:12;;;;;;;10.57;2.33;;;16.50;99.90;;;;;;5045770;28;20488;-73
2023/09/20 05:11:38;;;;;;;6.85;2.30;;;16.50;99.90;;;;;;5028166;28;20523;-72
2023/09/20 05:14:05;;;;;;;10.90;2.92;;;16.40;99.90;;;;;;5026737;28;20044;-72
2023/09/20 05:16:31;;;;;;;5.88;2.13;;;16.50;99.90;;;;;;5062517;28;20058;-72
2023/09/20 05:18:57;;;;;;;10.15;2.42;;;16.50;99.90;;;;;;5027421;28;20036;-72
2023/09/20 05:21:23;;;;;;;6.65;2.60;;;16.50;99.90;;;;;;5026393;28;20048;-71
2023/09/20 05:23:48;;;;;;;6.57;2.03;;;16.50;99.90;;;;;;5020852;28;20052;-71
2023/09/20 05:26:14;;;;;;;4.53;1.83;;;16.50;99.90;;;;;;5047327;28;20044;-71
2023/09/20 05:28:40;;;;;;;6.47;2.10;;;16.50;99.90;;;;;;5033198;28;20059;-71
2023/09/20 05:31:06;;;;;;;9.75;2.45;;;16.50;99.90;;;;;;5026759;28;20171;-72
2023/09/20 05:33:32;;;;;;;6.95;2.60;;;16.40;99.90;;;;;;5045861;28;20048;-72
2023/09/20 05:35:58;;;;;;;5.93;1.75;;;16.40;99.90;;;;;;5048095;28;20133;-72
2023/09/20 05:38:29;;;;;;;5.97;2.20;;;16.40;99.90;;;;;;5050725;28;20131;-72
2023/09/20 05:40:55;;;;;;;4.45;2.17;;;16.40;99.90;;;;;;5041121;28;20448;-72
2023/09/20 05:43:21;;;;;;;9.00;2.35;;;16.40;99.90;;;;;;5046613;28;20106;-72
2023/09/20 05:45:49;;;;;;;9.75;2.28;;;16.40;99.90;;;;;;5028898;28;20751;-71
2023/09/20 05:48:14;;;;;;;5.50;1.95;;;16.40;99.90;;;;;;5053306;28;20040;-73
2023/09/20 05:50:40;;;;;;;5.53;2.17;;;16.40;99.90;;;;;;5045393;28;20093;-72
2023/09/20 05:53:10;;;;;;;6.38;2.28;;;16.40;99.90;;;;;;5032761;28;20091;-74
2023/09/20 05:55:42;;;;;;;9.95;2.50;;;16.50;99.90;;;;;;5057459;28;20040;-70
2023/09/20 05:58:08;;;;;;;6.22;2.33;;;16.50;99.90;;;;;;5047576;28;20044;-70
2023/09/20 06:00:35;;;;;;;7.95;2.20;;;16.50;99.90;;;;;;5046893;28;20102;-74
2023/09/20 06:03:03;;;;;;;5.95;2.38;;;16.50;99.90;;;;;;5049364;28;20040;-71
2023/09/20 06:05:35;;;;;;;5.38;2.10;;;16.50;99.90;;;;;;5051376;28;20072;-71
2023/09/20 06:08:01;;;;;;;5.47;2.40;;;16.50;99.90;;;;;;5053896;28;20047;-70
2023/09/20 06:10:26;;;;;;;7.45;2.22;;;16.60;99.90;;;;;;5065654;28;20041;-70
2023/09/20 06:12:52;;;;;;;8.95;2.13;;;16.60;99.90;;;;;;5062063;28;20037;-70
2023/09/20 06:15:18;;;;;;;7.55;2.17;;;16.60;99.90;;;;;;5049500;28;20343;-70
2023/09/20 06:17:44;;;;;;;;;;;16.60;99.90;;;;;;5032448;28;20109;-70
2023/09/20 06:20:12;;;;;;;7.65;2.17;;;16.60;99.90;;;;;;5047735;28;20015;-70
2023/09/20 06:22:38;;;;;;;4.72;1.90;;;16.60;99.90;;;;;;5046406;28;20056;-70
2023/09/20 06:25:06;;;;;;;8.55;2.40;;;16.60;99.90;;;;;;5050118;28;20079;-71
2023/09/20 06:27:32;;;;;;;6.78;2.53;;;16.60;99.90;;;;;;5044694;28;20050;-70
2023/09/20 06:30:13;;;;;;;;;;;16.60;99.90;;;;;;5067389;28;20432;-70
2023/09/20 06:32:40;;;;;;;5.85;2.05;;;16.60;99.90;;;;;;5062127;28;19925;-70
2023/09/20 06:35:07;;;;;;;5.70;2.30;;;16.60;99.90;;;;;;5065190;28;20083;-71
2023/09/20 06:37:34;;;;;;;5.65;2.33;;;16.60;99.90;;;;;;5032892;28;20114;-70
2023/09/20 06:40:04;;;;;;;4.57;1.55;;;16.60;99.90;;;;;;5046919;28;20553;-70
2023/09/20 06:42:37;;;;;;;7.35;2.55;;;16.60;99.90;;;;;;5037236;28;20110;-69
2023/09/20 06:45:08;;;;;;;4.85;1.63;;;16.60;99.90;;;;;;5046580;28;20058;-69
2023/09/20 06:47:34;;;;;;;4.50;1.75;;;16.60;99.90;;;;;;5026783;28;20069;-69
2023/09/20 06:50:03;;;;;;;6.35;2.20;;;16.70;99.90;;;;;;5047081;28;20071;-70
2023/09/20 06:52:28;;;;;;;8.30;2.38;;;16.60;99.90;;;;;;5030259;28;20070;-70
2023/09/20 06:54:54;;;;;;;5.85;2.03;;;16.60;99.90;;;;;;5070836;28;20041;-70
2023/09/20 06:57:21;;;;;;;11.90;2.42;;;16.60;99.90;;;;;;5047740;28;20041;-70
2023/09/20 06:59:51;;;;;;;6.97;1.80;;;16.60;99.90;;;;;;5042601;28;20052;-72
2023/09/20 07:02:20;;;;;;;11.45;1.85;;;16.60;99.90;;;;;;5048066;28;20143;-72
2023/09/20 07:04:48;;;;;;;6.43;2.10;;;16.60;99.90;;;;;;5064604;28;20123;-72
2023/09/20 07:07:14;;;;;;;5.60;1.60;;;16.70;99.90;;;;;;5046909;28;20075;-72
2023/09/20 07:09:40;;;;;;;4.75;1.80;;;16.70;99.90;;;;;;5026428;28;20072;-72
2023/09/20 07:12:07;;;;;;;4.43;1.80;;;16.70;99.90;;;;;;5050878;28;20040;-72
2023/09/20 07:14:34;;;;;;;8.85;2.70;;;16.70;99.90;;;;;;5049328;28;20051;-72
2023/09/20 07:17:00;;;;;;;5.00;1.80;;;16.70;99.90;;;;;;5043963;28;20047;-72
2023/09/20 07:19:29;;;;;;;8.98;2.40;;;16.70;99.90;;;;;;5055611;28;20040;-73
2023/09/20 07:21:55;;;;;;;5.68;2.03;;;16.70;99.90;;;;;;5050661;28;20119;-72
2023/09/20 07:24:24;;;;;;;;;;;16.80;99.90;;;;;;5032327;28;20667;-72
2023/09/20 07:26:58;;;;;;;6.32;1.80;;;16.80;99.90;;;;;;5046196;28;21772;-72
2023/09/20 07:29:24;;;;;;;8.90;2.40;;;16.90;99.90;;;;;;5041344;28;20119;-73
2023/09/20 07:31:50;;;;;;;7.25;2.13;;;16.80;99.90;;;;;;5045532;28;21210;-73
2023/09/20 07:34:19;;;;;;;6.93;1.83;;;16.90;99.90;;;;;;5038201;28;20048;-73
2023/09/20 07:36:49;;;;;;;7.65;2.15;;;16.90;99.90;;;;;;5060893;28;20043;-72
2023/09/20 07:39:20;;;;;;;8.20;2.42;;;16.90;99.90;;;;;;5043839;28;20076;-73
2023/09/20 07:41:46;;;;;;;6.60;2.15;;;17.00;99.90;;;;;;5046855;28;20040;-73
2023/09/20 07:44:15;;;;;;;4.55;2.10;;;17.00;99.90;;;;;;5029586;28;20055;-72
2023/09/20 07:46:42;;;;;;;7.07;2.40;;;17.10;99.90;;;;;;5041113;28;20048;-73
2023/09/20 07:49:09;;;;;;;5.82;2.08;;;17.10;99.90;;;;;;5050170;28;20048;-72
2023/09/20 07:51:41;;;;;;;7.45;1.70;;;17.20;99.90;;;;;;5039079;28;20531;-72
2023/09/20 07:54:10;;;;;;;7.28;2.33;;;17.20;99.90;;;;;;5065021;28;20566;-73
2023/09/20 07:56:40;;;;;;;3.72;1.85;;;17.30;99.90;;;;;;5062312;28;20603;-73
2023/09/20 07:59:06;;;;;;;4.57;2.10;;;17.30;99.90;;;;;;5066273;28;20679;-72
2023/09/20 08:01:32;;;;;;;6.18;1.90;;;17.40;99.90;;;;;;5047036;28;20139;-73
2023/09/20 08:03:58;;;;;;;;;;;17.40;99.90;;;;;;5032503;28;20504;-73
2023/09/20 08:06:27;;;;;;;6.35;2.08;;;17.40;99.90;;;;;;5045693;28;20395;-72
2023/09/20 08:08:55;;;;;;;4.70;1.98;;;17.40;99.90;;;;;;5047676;28;20044;-73
2023/09/20 08:11:20;;;;;;;4.30;1.98;;;17.50;99.90;;;;;;5046567;28;20044;-73
2023/09/20 08:13:46;;;;;;;4.93;2.00;;;17.50;99.90;;;;;;5059950;28;20039;-72
2023/09/20 08:16:12;;;;;;;4.93;2.00;;;17.60;99.90;;;;;;5037226;28;20050;-72
2023/09/20 08:21:29;;;;;;;6.75;1.83;;;17.60;99.90;;;;;;5041798;28;20048;-72
2023/09/20 09:00:19;;;;;;;5.38;2.20;;;17.60;99.90;;;;;;5045308;28;20043;-72
2023/09/20 09:02:49;;;;;;;5.70;2.30;;;17.60;99.90;;;;;;5047155;28;20072;-73
2023/09/20 09:05:15;;;;;;;4.07;2.10;;;17.60;99.90;;;;;;5041055;28;20037;-73
2023/09/20 09:07:41;;;;;;;7.60;2.40;;;17.60;99.90;;;;;;5042612;28;20083;-73
2023/09/20 09:10:09;;;;;;;5.85;2.35;;;17.50;99.90;;;;;;5045443;28;20069;-73
2023/09/20 09:12:34;;;;;;;5.13;2.33;;;17.50;99.90;;;;;;5025006;28;20132;-73
2023/09/20 09:15:01;;;;;;;7.40;2.35;;;17.50;99.90;;;;;;5060494;28;20119;-72
2023/09/20 09:17:26;;;;;;;4.80;2.28;;;17.50;99.90;;;;;;5068426;28;20086;-72
2023/09/20 09:19:52;;;;;;;8.10;2.47;;;17.50;99.90;;;;;;5050490;28;20040;-73
2023/09/20 09:22:19;;;;;;;6.75;2.97;;;17.50;99.90;;;;;;5047826;28;20251;-72
2023/09/20 09:24:47;;;;;;;8.30;3.30;;;17.60;99.90;;;;;;5034203;28;20144;-74
2023/09/20 09:27:15;;;;;;;4.38;2.75;;;17.60;99.90;;;;;;5047625;28;20040;-74
2023/09/20 09:29:46;;;;;;;5.07;3.00;;;17.60;99.90;;;;;;5063428;28;20036;-73
2023/09/20 09:32:13;;;;;;;5.57;2.60;;;17.60;99.90;;;;;;5063045;28;20040;-73
2023/09/20 09:34:41;;;;;;;5.35;3.17;;;17.60;99.90;;;;;;5043241;28;20098;-73
2023/09/20 09:37:07;;;;;;;6.80;2.75;;;17.60;99.90;;;;;;5047868;28;20301;-74
2023/09/20 09:39:33;;;;;;;5.82;2.92;;;17.60;99.90;;;;;;5048586;28;20068;-73
2023/09/20 09:42:00;;;;;;;;;;;17.60;99.90;;;;;;5066221;28;20047;-73
2023/09/20 09:44:26;;;;;;;5.03;2.80;;;17.70;99.90;;;;;;5034258;28;20299;-73
2023/09/20 09:46:56;;;;;;;8.55;2.80;;;17.60;99.90;;;;;;5068183;28;20048;-73
2023/09/20 09:49:24;;;;;;;11.52;3.60;;;17.70;99.90;;;;;;5068609;28;20400;-72
2023/09/20 09:51:52;;;;;;;7.47;2.83;;;17.70;99.90;;;;;;5031578;28;20101;-73
2023/09/20 09:54:19;;;;;;;5.00;3.00;;;17.80;99.90;;;;;;5055164;28;20128;-73
2023/09/20 09:56:46;;;;;;;6.65;3.25;;;17.80;99.90;;;;;;5045294;28;20245;-71
2023/09/20 09:59:12;;;;;;;4.65;3.15;;;17.80;99.90;;;;;;5060105;28;20059;-72
2023/09/20 10:01:40;;;;;;;5.85;2.83;;;17.80;99.90;;;;;;5026362;28;20221;-73
2023/09/20 10:04:13;;;;;;;7.13;3.35;;;17.90;99.90;;;;;;5039686;28;20159;-74
2023/09/20 10:06:51;;;;;;;5.18;3.47;;;17.90;99.90;;;;;;5045569;28;20032;-72
2023/09/20 10:09:24;;;;;;;5.30;3.00;;;18.00;99.90;;;;;;5049065;28;20036;-73
2023/09/20 10:11:51;;;;;;;6.05;3.40;;;18.00;99.90;;;;;;5042477;28;20495;-71
2023/09/20 10:14:21;;;;;;;6.60;3.20;;;18.00;99.90;;;;;;5043965;28;20064;-74
2023/09/20 10:16:48;;;;;;;5.10;3.50;;;18.00;99.90;;;;;;5052513;28;20041;-73
2023/09/20 10:19:15;;;;;;;7.50;3.00;;;18.00;99.90;;;;;;5066348;28;20040;-69
2023/09/20 10:22:08;;;;;;;6.60;3.08;;;18.00;99.90;;;;;;5037654;28;20048;-72
2023/09/20 10:24:58;;;;;;;5.47;3.05;;;17.90;99.90;;;;;;5049195;28;20049;-73
2023/09/20 10:27:27;;;;;;;6.18;3.15;;;18.10;99.90;;;;;;5066136;28;20050;-67
2023/09/20 10:30:01;;;;;;;5.57;3.15;;;18.00;99.90;;;;;;5061589;28;20048;-68
2023/09/20 10:32:36;;;;;;;6.82;3.20;;;18.00;99.90;;;;;;5044287;28;20052;-68
2023/09/20 10:35:19;;;;;;;4.75;3.10;;;18.00;99.90;;;;;;5042195;28;20412;-68
2023/09/20 10:38:11;;;;;;;5.88;3.20;;;18.00;99.90;;;;;;5052433;28;20119;-68
2023/09/20 10:40:57;;;;;;;6.20;3.25;;;18.00;99.90;;;;;;5049004;28;20060;-68
2023/09/20 10:43:41;;;;;;;6.90;3.50;;;18.00;99.90;;;;;;5038936;28;20098;-68
2023/09/20 10:46:25;;;;;;;4.78;3.40;;;18.00;99.90;;;;;;5046127;28;20040;-68
2023/09/20 10:48:51;;;;;;;5.88;3.40;;;17.90;99.90;;;;;;5046037;28;20656;-68
2023/09/20 10:51:39;;;;;;;6.47;3.35;;;17.90;99.90;;;;;;5065841;28;20071;-68
2023/09/20 10:54:22;;;;;;;5.15;3.20;;;17.90;99.90;;;;;;5024874;28;20036;-70
2023/09/20 10:56:51;;;;;;;6.70;2.83;;;17.90;99.90;;;;;;5059158;28;20128;-70
2023/09/20 10:59:25;;;;;;;7.50;4.10;;;17.90;99.90;;;;;;5049202;28;20036;-70
2023/09/20 11:01:56;;;;;;;4.95;3.25;;;18.00;99.90;;;;;;5049964;28;20048;-70
2023/09/20 11:04:23;;;;;;;7.60;3.58;;;18.00;99.90;;;;;;5031552;28;20480;-71
2023/09/20 11:06:50;;;;;;;6.22;3.60;;;18.00;99.90;;;;;;5042264;28;20052;-69
2023/09/20 11:09:16;;;;;;;5.25;3.20;;;18.00;99.90;;;;;;5059538;28;20098;-69
2023/09/20 11:11:43;;;;;;;7.85;3.78;;;18.00;99.90;;;;;;5048260;28;20044;-69
2023/09/20 11:14:09;;;;;;;7.13;3.30;;;18.00;99.90;;;;;;5046669;28;20086;-69
2023/09/20 11:16:40;;;;;;;5.57;3.80;;;18.10;99.90;;;;;;5046232;28;20031;-70
2023/09/20 11:19:11;;;;;;;4.47;3.58;;;18.10;99.90;;;;;;5047777;28;20047;-69
2023/09/20 11:21:38;;;;;;;7.05;3.75;;;18.10;99.90;;;;;;5047096;28;20062;-70
2023/09/20 11:24:06;;;;;;;6.82;3.97;;;18.10;99.90;;;;;;5048068;28;20036;-70
2023/09/20 11:26:31;;;;;;;5.32;3.50;;;18.10;99.90;;;;;;5034999;28;20287;-70
2023/09/20 11:28:57;;;;;;;8.43;4.03;;;18.20;99.90;;;;;;5039692;28;20521;-70
2023/09/20 11:31:29;;;;;;;10.18;4.05;;;18.20;99.90;;;;;;5058917;28;20329;-69
2023/09/20 11:34:03;;;;;;;6.85;3.95;;;18.20;99.90;;;;;;5025232;28;20039;-70
2023/09/20 11:36:29;;;;;;;5.30;4.07;;;18.30;99.90;;;;;;5038245;28;20041;-69
2023/09/20 11:38:55;;;;;;;6.05;4.10;;;18.30;99.90;;;;;;5069520;28;20382;-69
2023/09/20 11:41:24;;;;;;;6.28;3.65;;;18.30;99.90;;;;;;5028556;28;20050;-69
2023/09/20 11:43:57;;;;;;;5.53;3.78;;;18.30;99.90;;;;;;5049372;28;20067;-69
2023/09/20 11:46:28;;;;;;;7.15;4.20;;;18.40;99.90;;;;;;5029053;28;20036;-69
2023/09/20 11:49:05;;;;;;;5.07;3.28;;;18.40;99.90;;;;;;5038651;28;20483;-69
2023/09/20 11:51:34;;;;;;;5.90;3.75;;;18.40;99.90;;;;;;5040288;28;20040;-69
2023/09/20 11:54:00;;;;;;;8.40;3.80;;;18.40;99.90;;;;;;5046341;28;20287;-69
2023/09/20 11:56:30;;;;;;;6.72;3.50;;;18.40;99.90;;;;;;5043935;28;20037;-69
2023/09/20 11:58:59;;;;;;;4.78;3.30;;;18.40;99.90;;;;;;5041724;28;20150;-70
2023/09/20 12:01:29;;;;;;;10.63;3.08;;;18.40;99.90;;;;;;5062205;28;20045;-70
2023/09/20 12:04:03;;;;;;;3.95;2.30;;;18.40;99.90;;;;;;5032253;28;20473;-69
2023/09/20 12:06:30;;;;;;;6.07;3.00;;;18.40;99.90;;;;;;5067235;28;20168;-69
2023/09/20 12:08:55;;;;;;;7.70;3.10;;;18.40;99.90;;;;;;5036587;28;20102;-70
2023/09/20 12:11:22;;;;;;;7.10;2.75;;;18.40;99.90;;;;;;5061783;28;20430;-69
2023/09/20 12:13:48;;;;;;;5.28;3.50;;;18.40;99.90;;;;;;5045381;28;20537;-70
2023/09/20 12:16:16;;;;;;;7.45;3.15;;;18.40;99.90;;;;;;5066414;28;20052;-69
2023/09/20 12:18:42;;;;;;;8.15;2.78;;;18.30;99.90;;;;;;5032461;28;21115;-69
2023/09/20 12:21:08;;;;;;;3.75;2.50;;;18.40;99.90;;;;;;5024887;28;20118;-69
2023/09/20 12:23:39;;;;;;;7.10;3.10;;;18.40;99.90;;;;;;5047842;28;20059;-69
2023/09/20 12:26:05;;;;;;;4.45;2.47;;;18.40;99.90;;;;;;5042090;28;20102;-69
2023/09/20 12:28:31;;;;;;;5.05;2.60;;;18.40;99.90;;;;;;5047148;28;20063;-70
2023/09/20 12:30:58;;;;;;;8.07;3.13;;;18.40;99.90;;;;;;5047230;28;20044;-69
2023/09/20 12:33:27;;;;;;;6.07;3.53;;;18.50;99.90;;;;;;5038809;28;20589;-70
2023/09/20 12:35:59;;;;;;;4.93;3.40;;;18.50;99.90;;;;;;5029859;28;20146;-69
2023/09/20 12:38:29;;;;;;;5.47;2.83;;;18.50;99.90;;;;;;5068979;28;20051;-69
2023/09/20 12:40:58;;;;;;;9.48;3.70;;;18.50;99.90;;;;;;5068609;28;20040;-69
2023/09/20 12:43:25;;;;;;;7.28;3.78;;;18.50;99.90;;;;;;5041899;28;20106;-69
2023/09/20 12:45:54;;;;;;;6.95;3.30;;;18.60;99.90;;;;;;5049441;28;20070;-69
2023/09/20 12:48:22;;;;;;;7.53;4.07;;;18.50;99.90;;;;;;5048434;28;20040;-69
2023/09/20 12:50:47;;;;;;;5.38;3.42;;;18.60;99.90;;;;;;5061027;28;20444;-70
2023/09/20 12:53:13;;;;;;;8.02;3.83;;;18.60;99.90;;;;;;5047740;28;20063;-70
2023/09/20 12:55:39;;;;;;;7.45;3.50;;;18.60;99.90;;;;;;5029703;28;20112;-70
2023/09/20 12:58:06;;;;;;;;;;;18.60;99.90;;;;;;5029398;28;20493;-70
2023/09/20 13:00:36;;;;;;;5.70;3.10;;;18.70;99.90;;;;;;5027549;28;19941;-70
2023/09/20 13:03:05;;;;;;;4.82;3.10;;;18.70;99.90;;;;;;5047271;28;20054;-70
2023/09/20 13:05:31;;;;;;;7.13;2.55;;;18.80;99.90;;;;;;5032943;28;20705;-70
2023/09/20 13:07:57;;;;;;;5.30;2.67;;;18.80;99.90;;;;;;5052690;28;20075;-70
2023/09/20 13:10:23;;;;;;;8.85;2.50;;;18.90;99.90;;;;;;5047992;28;20125;-70
2023/09/20 13:12:49;;;;;;;4.22;2.42;;;18.90;99.90;;;;;;5042758;28;20052;-70
2023/09/20 13:15:16;;;;;;;5.80;2.45;;;19.00;99.90;;;;;;5047036;28;20064;-70
2023/09/20 13:17:44;;;;;;;4.70;2.85;;;19.00;99.90;;;;;;5047632;28;20390;-70
2023/09/20 13:20:12;;;;;;;4.65;2.47;;;19.10;99.90;;;;;;5020078;28;20484;-71
2023/09/20 13:22:40;;;;;;;7.75;2.75;;;19.10;99.90;;;;;;5022780;28;20052;-70
2023/09/20 13:25:08;;;;;;;4.55;2.08;;;19.10;99.90;;;;;;5044903;28;20051;-70
2023/09/20 13:27:35;;;;;;;4.75;2.30;;;19.20;99.90;;;;;;5067066;28;20578;-70
2023/09/20 13:30:04;;;;;;;3.15;2.08;;;19.20;99.90;;;;;;5046486;28;20052;-70
2023/09/20 13:32:30;;;;;;;3.50;2.08;;;19.30;99.90;;;;;;5029063;28;20082;-70
2023/09/20 13:34:56;;;;;;;4.72;2.08;;;19.30;99.90;;;;;;5037649;28;20044;-70